Gardenia Ace — D5AG5 — position and weather

sailwx.info

Track history (hours):
 
Tides and Currents Weather Stations Pressure Air Temp Water Temp Dewpoint Dewpoint Depression Visibility Wind Speed Wind Dir Waves Ship Positions

Gardenia Ace

Last reported at 2018-Jan-31 19:03 UTC. Time now 2018-Feb-21 15:44 UTC.
Position N 01°26' E 103°12'.
Warning: this ship's position is 20 days out of date.

Length 180 m; draft 8.8 m.

Type: Cargo ship. MMSI: 636015370.

Date/timePositionNaut miles runAvg speedWind from/ knotsBaromVisibWave heightAir tempDewpointWater temp
2018-Jan-31 19:03N 01°26' E 103°12'413.7
2018-Jan-31 18:43N 01°23' E 103°15'713.1
2018-Jan-31 18:12N 01°19' E 103°20'312.8
2018-Jan-31 17:58N 01°16' E 103°22'612.3
2018-Jan-31 17:30N 01°14' E 103°27'612.4
2018-Jan-31 16:59N 01°11' E 103°33'612.9
2018-Jan-31 16:30N 01°11' E 103°40'612.4
2018-Jan-31 15:59N 01°09' E 103°46'715.1
2018-Jan-31 15:30N 01°12' E 103°52'612.4
2018-Jan-31 15:00N 01°15' E 103°58'4 7.1
2018-Jan-31 14:30N 01°17' E 104°01'0 0.1
2018-Jan-31 12:15N 01°18' E 104°01'0 0.4
2018-Jan-31 11:54N 01°18' E 104°01'0 0.0
2018-Jan-31 11:27N 01°18' E 104°01'0 0.0
2018-Jan-31 11:00N 01°18' E 104°01'0 0.0
2018-Jan-31 10:09N 01°18' E 104°01'0 0.1
2018-Jan-31 10:00N 01°18' E 104°01'0 0.1
2018-Jan-31 09:12N 01°18' E 104°01'0 0.1
2018-Jan-31 08:51N 01°18' E 104°01'0 0.1
2018-Jan-31 08:15N 01°18' E 104°01'0 0.1
2018-Jan-31 07:57N 01°18' E 104°01'0 0.0
2018-Jan-31 07:21N 01°18' E 104°01'0 0.0
2018-Jan-31 06:57N 01°18' E 104°01'0 0.0
2018-Jan-31 06:27N 01°18' E 104°01'0 0.1
2018-Jan-31 05:51N 01°18' E 104°01'0 0.0
2018-Jan-31 05:30N 01°18' E 104°01'0 0.1
2018-Jan-31 04:06N 01°18' E 104°01'0 0.0
2018-Jan-31 03:15N 01°18' E 104°01'0 0.0
2018-Jan-31 02:39N 01°18' E 104°01'0 0.0
2018-Jan-31 02:27N 01°18' E 104°01'0 0.0
2018-Jan-30 21:15N 01°18' E 104°01'0 0.0
2018-Jan-30 20:54N 01°18' E 104°01'0 0.0
2018-Jan-30 20:09N 01°18' E 104°01'0 0.0
2018-Jan-30 19:57N 01°18' E 104°01'0 0.0
2018-Jan-30 19:30N 01°18' E 104°01'0 0.0
2018-Jan-30 18:30N 01°18' E 104°01'1 1.7
2018-Jan-30 17:49N 01°17' E 103°60'1 4.6
2018-Jan-30 17:30N 01°16' E 103°59'2 3.9
2018-Jan-30 17:00N 01°16' E 104°01'4 6.9
2018-Jan-30 16:29N 01°16' E 104°04'5 7.2
2018-Jan-30 15:47N 01°17' E 104°09'3 7.5
2018-Jan-30 15:21N 01°17' E 104°13'  
Track history (hours):
 
Tides and Currents Weather Stations Pressure Air Temp Water Temp Dewpoint Dewpoint Depression Visibility Wind Speed Wind Dir Waves Ship Positions

Gardenia Ace

Last reported at 2018-Jan-31 19:03 UTC. Time now 2018-Feb-21 15:44 UTC.
Position N 01°26' E 103°12'.
Warning: this ship's position is 20 days out of date.

Length 180 m; draft 8.8 m.

Type: Cargo ship. MMSI: 636015370.

Date/timePositionNaut miles runAvg speedWind from/ knotsBaromVisibWave heightAir tempDewpointWater temp
2018-Jan-31 19:03N 01°26' E 103°12'413.7
2018-Jan-31 18:43N 01°23' E 103°15'713.1
2018-Jan-31 18:12N 01°19' E 103°20'312.8
2018-Jan-31 17:58N 01°16' E 103°22'612.3
2018-Jan-31 17:30N 01°14' E 103°27'612.4
2018-Jan-31 16:59N 01°11' E 103°33'612.9
2018-Jan-31 16:30N 01°11' E 103°40'612.4
2018-Jan-31 15:59N 01°09' E 103°46'715.1
2018-Jan-31 15:30N 01°12' E 103°52'612.4
2018-Jan-31 15:00N 01°15' E 103°58'4 7.1
2018-Jan-31 14:30N 01°17' E 104°01'0 0.1
2018-Jan-31 12:15N 01°18' E 104°01'0 0.4
2018-Jan-31 11:54N 01°18' E 104°01'0 0.0
2018-Jan-31 11:27N 01°18' E 104°01'0 0.0
2018-Jan-31 11:00N 01°18' E 104°01'0 0.0
2018-Jan-31 10:09N 01°18' E 104°01'0 0.1
2018-Jan-31 10:00N 01°18' E 104°01'0 0.1
2018-Jan-31 09:12N 01°18' E 104°01'0 0.1
2018-Jan-31 08:51N 01°18' E 104°01'0 0.1
2018-Jan-31 08:15N 01°18' E 104°01'0 0.1
2018-Jan-31 07:57N 01°18' E 104°01'0 0.0
2018-Jan-31 07:21N 01°18' E 104°01'0 0.0
2018-Jan-31 06:57N 01°18' E 104°01'0 0.0
2018-Jan-31 06:27N 01°18' E 104°01'0 0.1
2018-Jan-31 05:51N 01°18' E 104°01'0 0.0
2018-Jan-31 05:30N 01°18' E 104°01'0 0.1
2018-Jan-31 04:06N 01°18' E 104°01'0 0.0
2018-Jan-31 03:15N 01°18' E 104°01'0 0.0
2018-Jan-31 02:39N 01°18' E 104°01'0 0.0
2018-Jan-31 02:27N 01°18' E 104°01'0 0.0
2018-Jan-30 21:15N 01°18' E 104°01'0 0.0
2018-Jan-30 20:54N 01°18' E 104°01'0 0.0
2018-Jan-30 20:09N 01°18' E 104°01'0 0.0
2018-Jan-30 19:57N 01°18' E 104°01'0 0.0
2018-Jan-30 19:30N 01°18' E 104°01'0 0.0
2018-Jan-30 18:30N 01°18' E 104°01'1 1.7
2018-Jan-30 17:49N 01°17' E 103°60'1 4.6
2018-Jan-30 17:30N 01°16' E 103°59'2 3.9
2018-Jan-30 17:00N 01°16' E 104°01'4 6.9
2018-Jan-30 16:29N 01°16' E 104°04'5 7.2
2018-Jan-30 15:47N 01°17' E 104°09'3 7.5
2018-Jan-30 15:21N 01°17' E 104°13'  

Dump ship's entire track history